Time;durP1;ratioP1;P1;durP2;ratioP2;P2;SDS_P1;SDS_P2;PMS_P1;PMS_P2;Temp;Humidity;BMP_temperature;BMP_pressure;BME280_temperature;BME280_humidity;BME280_pressure;Samples;Min_cycle;Max_cycle;Signal;HPM_P1;HPM_P2
2023/09/06 00:00:42;;;;;;;4.15;3.03;;;18.90;1.00;;;;;;5086160;28;20040;-77
2023/09/06 00:03:10;;;;;;;3.60;3.03;;;18.90;1.00;;;;;;5085261;28;20056;-78
2023/09/06 00:05:41;;;;;;;3.22;2.83;;;18.90;1.00;;;;;;5069117;28;20040;-77
2023/09/06 00:08:16;;;;;;;3.78;3.03;;;18.90;1.00;;;;;;5086767;28;20054;-79
2023/09/06 00:10:43;;;;;;;4.53;3.33;;;18.80;1.00;;;;;;5083806;28;20097;-78
2023/09/06 00:13:11;;;;;;;3.60;2.75;;;18.80;18.90;;;;;;5067719;28;20048;-78
2023/09/06 00:15:38;;;;;;;4.03;2.60;;;18.80;1.00;;;;;;5085582;28;20048;-78
2023/09/06 00:18:05;;;;;;;3.95;3.03;;;18.80;8.20;;;;;;5068394;28;20048;-78
2023/09/06 00:20:36;;;;;;;3.97;2.92;;;18.60;1.00;;;;;;5086053;28;20055;-77
2023/09/06 00:23:05;;;;;;;3.42;2.60;;;18.50;99.90;;;;;;5084025;28;20098;-78
2023/09/06 00:25:32;;;;;;;3.15;2.33;;;18.50;99.90;;;;;;5081966;28;20040;-77
2023/09/06 00:28:00;;;;;;;3.65;2.83;;;18.40;99.90;;;;;;5064431;28;20047;-77
2023/09/06 00:30:27;;;;;;;4.60;3.15;;;18.50;99.90;;;;;;5081603;28;20052;-78
2023/09/06 00:32:54;;;;;;;3.75;2.90;;;18.50;99.90;;;;;;5084734;28;20040;-79
2023/09/06 00:35:25;;;;;;;3.03;2.47;;;18.40;99.90;;;;;;5085349;28;20081;-79
2023/09/06 00:37:52;;;;;;;4.05;3.03;;;18.40;99.90;;;;;;5069298;28;20040;-78
2023/09/06 00:40:21;;;;;;;3.05;2.63;;;18.40;99.90;;;;;;5068523;28;20044;-77
2023/09/06 00:42:49;;;;;;;3.55;2.78;;;18.40;1.00;;;;;;5084063;28;20605;-78
2023/09/06 00:45:21;;;;;;;3.33;2.83;;;18.40;1.00;;;;;;5080956;28;20054;-77
2023/09/06 00:47:52;;;;;;;5.73;2.60;;;18.50;1.00;;;;;;5066942;28;20412;-77
2023/09/06 00:50:19;;;;;;;4.75;3.33;;;18.40;1.00;;;;;;5084399;28;20819;-77
2023/09/06 00:52:47;;;;;;;3.67;2.80;;;18.40;1.00;;;;;;5067852;28;20056;-78
2023/09/06 00:55:14;;;;;;;2.90;2.58;;;18.40;1.00;;;;;;5084443;28;20070;-77
2023/09/06 00:57:40;;;;;;;4.45;2.70;;;18.40;1.00;;;;;;5068203;28;20056;-77
2023/09/06 01:00:23;;;;;;;2.80;2.15;;;18.30;1.00;;;;;;5084508;28;20048;-77
2023/09/06 01:02:50;;;;;;;3.15;2.50;;;18.30;1.00;;;;;;5083228;28;20174;-77
2023/09/06 01:05:17;;;;;;;2.70;2.28;;;18.30;1.00;;;;;;5049123;28;20105;-77
2023/09/06 01:07:48;;;;;;;3.20;2.08;;;18.30;1.00;;;;;;5084919;28;20147;-77
2023/09/06 01:10:15;;;;;;;2.75;2.10;;;18.30;1.00;;;;;;5084197;28;20063;-77
2023/09/06 01:12:42;;;;;;;3.05;2.28;;;18.20;25.70;;;;;;5055186;28;20725;-77
2023/09/06 01:15:10;;;;;;;2.55;1.92;;;18.20;22.10;;;;;;5049500;28;20040;-77
2023/09/06 01:17:38;;;;;;;3.00;2.00;;;18.20;14.70;;;;;;5082837;28;20052;-78
2023/09/06 01:20:15;;;;;;;2.60;2.10;;;18.20;4.90;;;;;;5051206;28;20055;-77
2023/09/06 01:22:57;;;;;;;2.40;1.83;;;18.20;24.00;;;;;;5084077;28;20044;-78
2023/09/06 01:25:24;;;;;;;2.55;1.77;;;18.20;36.40;;;;;;5084652;28;20052;-78
2023/09/06 01:27:50;;;;;;;2.45;1.90;;;18.20;55.80;;;;;;5067553;28;20052;-78
2023/09/06 01:30:18;;;;;;;2.03;1.80;;;18.10;38.80;;;;;;5065926;28;20059;-78
2023/09/06 01:32:45;;;;;;;2.78;1.90;;;18.10;45.20;;;;;;5081439;28;20044;-78
2023/09/06 01:35:12;;;;;;;2.33;2.13;;;18.10;62.40;;;;;;5084877;28;20090;-78
2023/09/06 01:37:38;;;;;;;3.10;2.47;;;18.20;38.90;;;;;;5067473;28;20044;-78
2023/09/06 01:40:17;;;;;;;3.67;2.35;;;18.20;1.00;;;;;;5086005;28;20048;-77
2023/09/06 01:42:44;;;;;;;2.55;2.10;;;18.10;1.00;;;;;;5083308;28;20524;-78
2023/09/06 01:45:11;;;;;;;2.50;1.90;;;18.10;27.10;;;;;;5067266;28;20776;-78
2023/09/06 01:47:38;;;;;;;2.38;1.85;;;18.00;30.40;;;;;;5051998;28;20060;-78
2023/09/06 01:50:05;;;;;;;3.53;2.20;;;18.00;8.30;;;;;;5083796;28;20093;-78
2023/09/06 01:52:32;;;;;;;2.22;1.90;;;18.00;28.90;;;;;;5083766;28;20071;-78
2023/09/06 01:54:59;;;;;;;2.63;1.55;;;17.90;42.80;;;;;;5085442;28;20044;-78
2023/09/06 01:57:25;;;;;;;2.10;1.50;;;17.90;29.80;;;;;;5067571;28;20121;-77
2023/09/06 01:59:52;;;;;;;2.63;1.55;;;17.90;39.30;;;;;;5065994;28;20044;-78
2023/09/06 02:02:19;;;;;;;2.05;1.70;;;17.80;58.80;;;;;;5067107;28;20040;-78
2023/09/06 02:04:46;;;;;;;1.67;1.33;;;17.80;84.60;;;;;;5067552;28;20150;-78
2023/09/06 02:07:13;;;;;;;2.08;1.52;;;17.80;99.90;;;;;;5084271;28;20044;-77
2023/09/06 02:09:40;;;;;;;2.78;1.90;;;17.80;99.90;;;;;;5083595;28;20054;-78
2023/09/06 02:12:07;;;;;;;2.20;1.73;;;17.80;99.90;;;;;;5067090;28;20044;-78
2023/09/06 02:14:34;;;;;;;2.35;1.40;;;17.80;99.90;;;;;;5095341;28;20093;-78
2023/09/06 02:17:01;;;;;;;2.20;1.70;;;17.80;99.90;;;;;;5083902;28;20458;-78
2023/09/06 02:19:28;;;;;;;1.58;1.00;;;17.70;99.90;;;;;;5083878;28;20048;-78
2023/09/06 02:21:55;;;;;;;2.60;1.70;;;17.70;99.90;;;;;;5083385;28;20099;-78
2023/09/06 02:24:21;;;;;;;1.63;1.27;;;17.60;99.90;;;;;;5083181;28;20597;-78
2023/09/06 02:26:48;;;;;;;2.08;1.58;;;17.60;99.90;;;;;;5085473;28;20075;-78
2023/09/06 02:29:15;;;;;;;1.77;1.45;;;17.50;99.90;;;;;;5065737;28;20044;-77
2023/09/06 02:31:44;;;;;;;2.05;1.55;;;17.50;99.90;;;;;;5050377;28;20080;-78
2023/09/06 02:34:11;;;;;;;2.08;1.55;;;17.50;99.90;;;;;;5083352;28;20047;-77
2023/09/06 02:36:38;;;;;;;2.63;1.63;;;17.50;99.90;;;;;;5067115;28;20051;-78
2023/09/06 02:39:05;;;;;;;2.13;1.55;;;17.50;99.90;;;;;;5083748;28;20147;-78
2023/09/06 02:41:31;;;;;;;2.05;1.60;;;17.50;99.90;;;;;;5083117;28;20044;-78
2023/09/06 02:43:58;;;;;;;1.80;1.48;;;17.50;99.90;;;;;;5065832;28;20105;-79
2023/09/06 02:46:29;;;;;;;2.00;1.40;;;17.50;99.90;;;;;;5083409;28;20044;-78
2023/09/06 02:48:58;;;;;;;2.17;1.60;;;17.40;99.90;;;;;;5085136;28;20044;-78
2023/09/06 02:51:29;;;;;;;1.73;1.42;;;17.40;99.90;;;;;;5083246;28;20562;-78
2023/09/06 02:53:57;;;;;;;2.05;1.70;;;17.40;99.90;;;;;;5083533;28;20098;-78
2023/09/06 02:56:23;;;;;;;1.98;1.48;;;17.40;99.90;;;;;;5066669;28;20052;-78
2023/09/06 02:58:50;;;;;;;2.10;1.85;;;17.40;99.90;;;;;;5082093;28;20127;-77
2023/09/06 03:01:20;;;;;;;1.88;1.52;;;17.40;99.90;;;;;;5050274;28;20059;-78
2023/09/06 03:03:48;;;;;;;2.05;1.60;;;17.40;99.90;;;;;;5066426;28;20487;-78
2023/09/06 03:06:18;;;;;;;2.05;1.52;;;17.50;99.90;;;;;;5071113;28;20409;-77
2023/09/06 03:08:47;;;;;;;1.90;1.65;;;17.40;99.90;;;;;;5070378;28;20044;-78
2023/09/06 03:11:14;;;;;;;2.33;1.90;;;17.40;99.90;;;;;;5088210;28;20143;-78
2023/09/06 03:13:45;;;;;;;1.67;1.45;;;17.50;99.90;;;;;;5085801;28;20052;-78
2023/09/06 03:16:13;;;;;;;2.10;1.85;;;17.40;99.90;;;;;;5087184;28;20075;-78
2023/09/06 03:18:42;;;;;;;2.10;1.60;;;17.40;99.90;;;;;;5086764;28;20135;-78
2023/09/06 03:21:09;;;;;;;2.15;1.67;;;17.40;99.90;;;;;;5087699;28;20380;-78
2023/09/06 03:23:38;;;;;;;2.00;1.80;;;17.40;99.90;;;;;;5069644;28;20048;-78
2023/09/06 03:26:05;;;;;;;2.28;1.63;;;17.40;99.90;;;;;;5054382;28;20044;-78
2023/09/06 03:28:33;;;;;;;2.38;1.80;;;17.40;99.90;;;;;;5069593;28;20081;-77
2023/09/06 03:31:00;;;;;;;2.17;1.83;;;17.50;99.90;;;;;;5053779;28;20048;-77
2023/09/06 03:33:27;;;;;;;2.50;1.60;;;17.40;99.90;;;;;;5069443;28;20631;-76
2023/09/06 03:35:55;;;;;;;2.67;2.05;;;17.30;99.90;;;;;;5086720;28;20052;-76
2023/09/06 03:38:25;;;;;;;1.90;1.52;;;17.30;99.90;;;;;;5087459;28;20052;-78
2023/09/06 03:40:52;;;;;;;2.08;1.75;;;17.30;99.90;;;;;;5087037;28;20056;-78
2023/09/06 03:43:19;;;;;;;2.15;1.92;;;17.30;99.90;;;;;;5085047;28;20072;-77
2023/09/06 03:45:53;;;;;;;2.08;1.70;;;17.30;99.90;;;;;;5070399;28;20037;-78
2023/09/06 03:48:22;;;;;;;;;;;17.20;99.90;;;;;;5070642;28;20044;-78
2023/09/06 03:50:55;;;;;;;1.88;1.42;;;17.20;99.90;;;;;;5086437;28;20020;-78
2023/09/06 03:53:25;;;;;;;2.05;1.65;;;17.30;99.90;;;;;;5086513;28;20107;-78
2023/09/06 03:55:56;;;;;;;2.65;1.67;;;17.30;99.90;;;;;;5087265;28;20044;-77
2023/09/06 03:58:24;;;;;;;2.50;1.80;;;17.30;99.90;;;;;;5080995;28;20052;-77
2023/09/06 04:00:52;;;;;;;2.10;1.80;;;17.20;99.90;;;;;;5069927;28;20066;-78
2023/09/06 04:03:20;;;;;;;2.25;1.63;;;17.20;99.90;;;;;;5085300;28;20563;-78
2023/09/06 04:05:47;;;;;;;1.88;1.60;;;17.20;99.90;;;;;;5086560;28;20043;-79
2023/09/06 04:08:17;;;;;;;1.92;1.40;;;17.20;99.90;;;;;;5064822;28;20068;-78
2023/09/06 04:10:45;;;;;;;2.10;1.67;;;17.10;99.90;;;;;;5069823;28;20048;-77
2023/09/06 04:13:12;;;;;;;2.28;1.63;;;17.10;1.00;;;;;;5084616;28;20074;-77
2023/09/06 04:15:40;;;;;;;2.85;2.17;;;17.10;1.00;;;;;;5068736;28;20044;-77
2023/09/06 04:18:09;;;;;;;2.33;1.75;;;17.20;1.00;;;;;;5085191;28;20052;-78
2023/09/06 04:20:37;;;;;;;1.88;1.60;;;17.10;1.00;;;;;;5069907;28;20585;-78
2023/09/06 04:23:05;;;;;;;2.08;1.80;;;17.10;1.00;;;;;;5068213;28;20067;-78
2023/09/06 04:25:33;;;;;;;2.38;1.77;;;17.10;1.00;;;;;;5087198;28;20123;-78
2023/09/06 04:28:07;;;;;;;1.92;1.65;;;17.10;1.00;;;;;;5084544;28;20557;-77
2023/09/06 04:30:35;;;;;;;2.17;1.45;;;17.10;1.00;;;;;;5082525;28;20075;-78
2023/09/06 04:33:07;;;;;;;2.10;1.40;;;17.10;1.00;;;;;;5085645;28;20144;-78
2023/09/06 04:35:37;;;;;;;2.65;1.75;;;17.10;1.00;;;;;;5067469;28;20052;-77
2023/09/06 04:38:05;;;;;;;1.85;1.40;;;17.10;1.00;;;;;;5084957;28;20059;-77
2023/09/06 04:40:31;;;;;;;1.88;1.55;;;17.10;1.00;;;;;;5068791;28;20053;-77
2023/09/06 04:42:59;;;;;;;2.42;1.80;;;17.10;1.00;;;;;;5067784;28;20044;-78
2023/09/06 04:45:25;;;;;;;2.03;1.67;;;17.00;1.00;;;;;;5068203;28;20105;-78
2023/09/06 04:47:52;;;;;;;1.38;1.17;;;17.00;1.00;;;;;;5083537;28;20150;-78
2023/09/06 04:50:19;;;;;;;1.67;1.40;;;16.90;1.00;;;;;;5080304;28;20426;-78
2023/09/06 04:52:47;;;;;;;1.50;1.30;;;16.90;1.00;;;;;;5083327;28;20048;-79
2023/09/06 04:55:14;;;;;;;1.70;1.27;;;16.90;1.00;;;;;;5066750;28;20048;-78
2023/09/06 04:57:41;;;;;;;1.52;1.30;;;16.90;1.00;;;;;;5063064;28;20546;-77
2023/09/06 05:00:12;;;;;;;1.42;1.00;;;16.90;1.00;;;;;;5078662;28;20048;-77
2023/09/06 05:02:39;;;;;;;1.48;1.33;;;17.00;1.00;;;;;;5078683;28;20052;-77
2023/09/06 05:05:06;;;;;;;3.45;1.50;;;17.00;1.00;;;;;;5068111;28;20445;-77
2023/09/06 05:07:33;;;;;;;1.63;1.20;;;17.00;1.00;;;;;;5078611;28;20043;-78
2023/09/06 05:10:00;;;;;;;1.40;1.20;;;17.00;1.00;;;;;;5063492;28;20530;-78
2023/09/06 05:12:27;;;;;;;1.75;1.48;;;17.00;1.00;;;;;;5049620;28;20055;-78
2023/09/06 05:14:54;;;;;;;1.90;1.35;;;17.00;1.00;;;;;;5064765;28;20052;-78
2023/09/06 05:17:21;;;;;;;1.65;1.40;;;17.10;1.00;;;;;;5062608;28;20060;-78
2023/09/06 05:19:50;;;;;;;1.63;1.38;;;17.10;1.00;;;;;;5078002;28;20047;-78
2023/09/06 05:22:17;;;;;;;2.90;1.83;;;17.10;1.00;;;;;;5082340;28;20091;-77
2023/09/06 05:24:45;;;;;;;1.70;1.50;;;17.00;1.00;;;;;;5083965;28;20548;-78
2023/09/06 05:27:13;;;;;;;1.95;1.60;;;17.00;1.00;;;;;;5080341;28;20047;-79
2023/09/06 05:29:39;;;;;;;2.28;1.60;;;16.90;1.00;;;;;;5060097;28;20048;-77
2023/09/06 05:32:06;;;;;;;1.98;1.60;;;16.90;1.00;;;;;;5081408;28;20938;-78
2023/09/06 05:34:33;;;;;;;1.45;1.20;;;16.80;1.00;;;;;;5063902;28;20043;-77
2023/09/06 05:37:00;;;;;;;1.38;1.25;;;16.80;1.00;;;;;;5067701;28;20044;-78
2023/09/06 05:39:27;;;;;;;2.13;1.50;;;16.80;1.00;;;;;;5077635;28;20072;-78
2023/09/06 05:41:54;;;;;;;1.70;1.45;;;16.80;45.30;;;;;;5052439;28;20048;-79
2023/09/06 05:44:21;;;;;;;1.90;1.52;;;16.90;56.80;;;;;;5079503;28;20055;-79
2023/09/06 05:46:48;;;;;;;1.42;1.30;;;16.90;48.30;;;;;;5084515;28;20048;-78
2023/09/06 05:49:15;;;;;;;1.52;1.10;;;17.00;43.70;;;;;;5082910;28;20047;-78
2023/09/06 05:51:41;;;;;;;1.67;1.40;;;17.00;46.20;;;;;;5064689;28;20083;-79
2023/09/06 05:54:09;;;;;;;1.13;1.02;;;17.00;35.20;;;;;;5066264;28;20083;-78
2023/09/06 05:56:36;;;;;;;1.90;1.58;;;17.10;45.20;;;;;;5084056;28;20047;-78
2023/09/06 05:59:03;;;;;;;1.88;1.40;;;17.10;45.50;;;;;;5079355;28;20048;-77
2023/09/06 06:01:30;;;;;;;2.13;1.42;;;17.10;47.30;;;;;;5065191;28;20094;-79
2023/09/06 06:03:57;;;;;;;1.90;1.23;;;17.20;46.40;;;;;;5082229;28;20143;-79
2023/09/06 06:06:26;;;;;;;1.77;1.45;;;17.30;28.50;;;;;;5073294;28;20113;-78
2023/09/06 06:08:53;;;;;;;1.65;1.48;;;17.30;16.50;;;;;;5058584;28;20040;-77
2023/09/06 06:11:20;;;;;;;1.70;1.40;;;17.30;21.70;;;;;;5078859;28;20150;-77
2023/09/06 06:13:47;;;;;;;1.67;1.38;;;17.30;11.80;;;;;;5067246;28;20048;-78
2023/09/06 06:16:34;;;;;;;1.70;1.30;;;17.40;13.30;;;;;;5064451;28;20048;-78
2023/09/06 06:19:01;;;;;;;1.52;1.10;;;17.50;1.00;;;;;;5053002;28;20048;-79
2023/09/06 06:21:29;;;;;;;1.60;1.27;;;17.50;1.00;;;;;;5067733;28;20040;-78
2023/09/06 06:23:56;;;;;;;1.45;1.17;;;17.60;1.00;;;;;;5069232;28;20075;-77
2023/09/06 06:26:23;;;;;;;1.45;1.08;;;17.70;1.00;;;;;;5081482;28;20087;-77
2023/09/06 06:28:50;;;;;;;1.70;1.58;;;17.70;1.00;;;;;;5076047;28;20048;-77
2023/09/06 06:31:17;;;;;;;1.67;1.58;;;17.70;1.00;;;;;;5074685;28;20044;-77
2023/09/06 06:33:44;;;;;;;1.67;1.50;;;17.70;1.00;;;;;;5080813;28;20040;-76
2023/09/06 06:36:11;;;;;;;2.30;1.75;;;17.80;1.00;;;;;;5083690;28;20043;-77
2023/09/06 06:38:38;;;;;;;1.77;1.35;;;17.90;1.00;;;;;;5081751;28;20115;-77
2023/09/06 06:41:04;;;;;;;2.45;1.85;;;18.00;1.00;;;;;;5048861;28;20059;-77
2023/09/06 06:43:33;;;;;;;1.58;1.48;;;18.10;1.00;;;;;;5078842;28;20233;-74
2023/09/06 06:46:04;;;;;;;1.77;1.50;;;18.20;1.00;;;;;;5082001;28;20139;-75
2023/09/06 06:48:31;;;;;;;1.42;1.25;;;18.20;1.00;;;;;;5081113;28;20139;-74
2023/09/06 06:50:58;;;;;;;2.10;1.50;;;18.30;1.00;;;;;;5075323;28;20044;-75
2023/09/06 06:53:25;;;;;;;1.65;1.52;;;18.40;1.00;;;;;;5079412;28;20631;-76
2023/09/06 06:55:52;;;;;;;1.70;1.40;;;18.40;1.00;;;;;;5083546;28;20071;-81
2023/09/06 06:58:20;;;;;;;2.20;1.42;;;18.50;1.00;;;;;;5045506;28;20052;-84
2023/09/06 07:00:48;;;;;;;2.10;1.60;;;18.60;1.00;;;;;;5082066;28;20044;-78
2023/09/06 07:03:16;;;;;;;2.25;1.80;;;18.60;1.00;;;;;;5074914;28;20635;-76
2023/09/06 07:05:42;;;;;;;2.38;1.92;;;18.70;99.90;;;;;;5074740;28;20096;-76
2023/09/06 07:08:10;;;;;;;4.38;2.20;;;18.80;99.90;;;;;;5077631;28;20110;-75
2023/09/06 07:10:37;;;;;;;2.60;2.20;;;18.90;99.90;;;;;;5077762;28;20055;-75
2023/09/06 07:13:05;;;;;;;2.53;2.03;;;19.00;99.90;;;;;;5095548;28;20051;-76
2023/09/06 07:15:32;;;;;;;2.47;2.10;;;19.10;99.90;;;;;;5082396;28;20495;-75
2023/09/06 07:18:04;;;;;;;2.70;2.28;;;19.10;99.90;;;;;;5074490;28;20633;-75
2023/09/06 07:20:32;;;;;;;2.53;2.08;;;19.20;99.90;;;;;;5076660;28;20056;-75
2023/09/06 07:22:59;;;;;;;1.90;1.73;;;19.30;99.90;;;;;;5072683;28;20558;-76
2023/09/06 07:25:27;;;;;;;2.33;2.08;;;19.40;99.90;;;;;;5079936;28;20519;-75
2023/09/06 07:27:54;;;;;;;2.83;2.25;;;19.50;99.90;;;;;;5065399;28;20154;-75
2023/09/06 07:30:21;;;;;;;3.00;2.63;;;19.60;73.50;;;;;;5080202;28;20063;-75
2023/09/06 07:32:48;;;;;;;2.63;2.03;;;19.70;2.30;;;;;;5082030;28;20097;-75
2023/09/06 07:35:15;;;;;;;2.65;2.35;;;19.70;1.00;;;;;;5079078;28;20492;-74
2023/09/06 07:37:43;;;;;;;2.90;2.20;;;19.80;1.00;;;;;;5080932;28;20055;-74
2023/09/06 07:40:10;;;;;;;2.58;2.10;;;19.90;99.90;;;;;;5077508;28;20051;-75
2023/09/06 07:42:38;;;;;;;2.63;2.28;;;20.00;99.90;;;;;;5082536;28;20041;-75
2023/09/06 07:45:07;;;;;;;2.40;2.05;;;20.10;99.90;;;;;;5063987;28;20048;-75
2023/09/06 07:47:34;;;;;;;3.17;2.70;;;20.20;99.90;;;;;;5048645;28;20132;-77
2023/09/06 07:50:01;;;;;;;2.47;2.28;;;20.20;99.90;;;;;;5079474;28;20688;-76
2023/09/06 07:52:28;;;;;;;3.58;2.97;;;20.30;1.00;;;;;;5078184;28;20106;-79
2023/09/06 07:54:55;;;;;;;3.10;2.70;;;20.30;11.00;;;;;;5082600;28;20044;-79
2023/09/06 07:57:24;;;;;;;3.03;2.60;;;20.30;50.20;;;;;;5086772;28;20079;-79
2023/09/06 07:59:51;;;;;;;2.50;2.13;;;20.50;1.00;;;;;;5086005;28;20051;-79
2023/09/06 08:02:17;;;;;;;2.50;2.30;;;20.60;99.90;;;;;;5089637;28;20066;-79
2023/09/06 08:04:44;;;;;;;2.55;2.35;;;20.70;99.90;;;;;;5086506;28;20124;-78
2023/09/06 08:07:13;;;;;;;2.38;2.00;;;20.80;99.90;;;;;;5087554;28;20067;-78
2023/09/06 08:09:43;;;;;;;2.42;1.98;;;20.90;99.90;;;;;;5087772;28;20044;-80
2023/09/06 08:12:10;;;;;;;2.88;2.58;;;21.00;45.70;;;;;;5079826;28;20051;-78
2023/09/06 08:14:38;;;;;;;2.90;2.60;;;21.10;1.00;;;;;;5080342;28;20040;-76
2023/09/06 08:17:06;;;;;;;2.92;2.55;;;21.10;1.00;;;;;;5069870;28;20044;-77
2023/09/06 08:19:33;;;;;;;4.10;3.17;;;21.20;1.00;;;;;;5086627;28;20560;-75
2023/09/06 08:21:59;;;;;;;3.10;2.65;;;21.30;1.00;;;;;;5069235;28;20117;-75
2023/09/06 08:24:26;;;;;;;2.58;2.38;;;21.40;99.90;;;;;;5062181;28;20082;-74
2023/09/06 08:26:53;;;;;;;3.58;3.28;;;21.50;99.90;;;;;;5082987;28;20060;-75
2023/09/06 08:29:20;;;;;;;3.33;3.00;;;21.60;99.90;;;;;;5067234;28;20046;-75
2023/09/06 08:31:47;;;;;;;2.92;2.40;;;21.70;1.00;;;;;;5084825;28;20056;-75
2023/09/06 08:34:14;;;;;;;2.42;2.03;;;21.80;99.90;;;;;;5078184;28;20083;-75
2023/09/06 08:36:41;;;;;;;3.28;2.75;;;21.90;35.20;;;;;;5074694;28;20580;-75
2023/09/06 08:39:08;;;;;;;2.75;2.30;;;22.00;99.90;;;;;;5084898;28;20074;-75
2023/09/06 08:41:34;;;;;;;3.30;2.83;;;22.00;99.90;;;;;;5079812;28;20060;-76
2023/09/06 08:44:03;;;;;;;2.72;2.20;;;22.10;99.90;;;;;;5089889;28;20120;-75
2023/09/06 08:46:33;;;;;;;3.10;2.67;;;22.20;99.90;;;;;;5045004;28;20117;-75
2023/09/06 08:49:01;;;;;;;3.85;3.40;;;22.30;1.00;;;;;;5032912;28;20067;-75
2023/09/06 08:51:32;;;;;;;2.72;2.53;;;22.30;99.90;;;;;;5045696;28;20062;-76
2023/09/06 08:53:59;;;;;;;2.97;2.67;;;22.40;99.90;;;;;;5067128;28;20040;-76
2023/09/06 08:56:25;;;;;;;4.50;3.38;;;22.50;95.10;;;;;;5082854;28;20071;-77
2023/09/06 08:58:52;;;;;;;3.72;3.10;;;22.60;1.00;;;;;;5078101;28;20040;-76
2023/09/06 09:01:19;;;;;;;4.30;3.88;;;22.60;99.90;;;;;;5079955;28;20082;-75
2023/09/06 09:03:46;;;;;;;3.35;3.05;;;22.60;99.90;;;;;;5046221;28;20525;-75
2023/09/06 09:06:13;;;;;;;3.72;3.00;;;22.70;99.90;;;;;;5063104;28;20052;-76
2023/09/06 09:08:40;;;;;;;2.55;2.35;;;22.80;1.00;;;;;;5065761;28;20046;-76
2023/09/06 09:11:07;;;;;;;3.50;2.65;;;22.90;99.90;;;;;;5064140;28;20044;-75
2023/09/06 09:13:34;;;;;;;2.95;2.30;;;23.00;99.90;;;;;;5078179;28;20048;-75
2023/09/06 09:16:07;;;;;;;2.97;2.40;;;23.10;99.90;;;;;;5081083;28;20397;-75
2023/09/06 09:18:38;;;;;;;1.90;1.70;;;23.30;3.70;;;;;;5069112;28;20134;-76
2023/09/06 09:21:09;;;;;;;2.40;1.98;;;23.40;1.00;;;;;;5074007;28;20044;-76
2023/09/06 09:23:46;;;;;;;2.13;1.90;;;23.50;1.00;;;;;;5078775;28;20121;-83
2023/09/06 09:26:14;;;;;;;3.03;2.72;;;23.70;1.00;;;;;;5079087;28;20109;-81
2023/09/06 09:28:41;;;;;;;3.17;2.88;;;23.70;1.00;;;;;;5078826;28;20055;-81
2023/09/06 09:31:14;;;;;;;2.65;2.03;;;23.80;1.00;;;;;;5061707;28;20072;-81
2023/09/06 09:33:43;;;;;;;;;;;23.90;1.00;;;;;;5047974;28;20048;-81
2023/09/06 09:36:14;;;;;;;1.92;1.73;;;24.00;1.00;;;;;;5066838;28;20369;-81
2023/09/06 09:38:42;;;;;;;1.67;1.40;;;24.10;1.00;;;;;;5048821;28;20080;-81
2023/09/06 09:41:10;;;;;;;3.08;2.67;;;24.30;1.00;;;;;;5083887;28;20545;-81
2023/09/06 09:43:37;;;;;;;1.70;1.52;;;24.30;1.00;;;;;;5081055;28;20137;-81
2023/09/06 09:46:04;;;;;;;2.50;2.00;;;24.40;1.00;;;;;;5079056;28;20048;-79
2023/09/06 09:48:31;;;;;;;2.47;2.25;;;24.50;1.00;;;;;;5076168;28;20043;-77
2023/09/06 09:51:04;;;;;;;2.75;2.35;;;24.60;1.00;;;;;;5064008;28;20072;-78
2023/09/06 09:53:32;;;;;;;2.50;2.10;;;24.70;1.00;;;;;;5065739;28;20040;-81
2023/09/06 09:56:06;;;;;;;1.88;1.63;;;24.80;99.90;;;;;;5064269;28;20116;-81
2023/09/06 09:58:36;;;;;;;2.10;1.80;;;25.00;99.90;;;;;;5059793;28;20067;-81
2023/09/06 10:01:05;;;;;;;2.47;1.73;;;25.00;99.90;;;;;;5047624;28;20051;-81
2023/09/06 10:03:33;;;;;;;2.03;1.83;;;25.20;99.90;;;;;;5065688;28;20101;-81
2023/09/06 10:06:03;;;;;;;2.50;1.88;;;25.30;99.90;;;;;;5068705;28;20054;-81
2023/09/06 10:08:32;;;;;;;2.97;1.95;;;25.40;99.90;;;;;;5068074;28;20051;-80
2023/09/06 10:10:58;;;;;;;3.30;2.50;;;25.50;99.90;;;;;;5047031;28;20052;-81
2023/09/06 10:13:28;;;;;;;2.92;2.08;;;25.60;99.90;;;;;;5075562;28;20097;-80
2023/09/06 10:15:56;;;;;;;2.22;2.03;;;25.60;99.90;;;;;;5063602;28;20425;-80
2023/09/06 10:18:23;;;;;;;2.53;2.33;;;25.80;99.90;;;;;;5080338;28;20052;-80
2023/09/06 10:20:50;;;;;;;2.13;1.83;;;25.80;99.90;;;;;;5064279;28;20067;-80
2023/09/06 10:23:17;;;;;;;2.20;2.00;;;25.90;99.90;;;;;;5081703;28;20090;-80
2023/09/06 10:25:49;;;;;;;3.55;2.70;;;25.90;99.90;;;;;;5081993;28;20044;-80
2023/09/06 10:28:19;;;;;;;3.78;2.50;;;26.00;99.90;;;;;;5080958;28;20079;-80
2023/09/06 10:30:51;;;;;;;2.20;1.70;;;26.10;99.90;;;;;;5081737;28;20407;-80
2023/09/06 10:33:33;;;;;;;1.67;1.30;;;26.30;99.90;;;;;;5051144;28;20052;-78
2023/09/06 10:36:05;;;;;;;2.33;1.90;;;26.50;99.90;;;;;;5086542;28;20376;-80
2023/09/06 10:38:35;;;;;;;3.08;2.10;;;26.60;99.90;;;;;;5082560;28;20375;-80
2023/09/06 10:41:06;;;;;;;2.40;1.90;;;26.70;99.90;;;;;;5068368;28;20479;-80
2023/09/06 10:43:54;;;;;;;2.55;2.05;;;26.80;99.90;;;;;;5067605;28;20056;-79
2023/09/06 10:46:26;;;;;;;2.35;1.90;;;26.90;99.90;;;;;;5078133;28;20052;-81
2023/09/06 10:49:12;;;;;;;2.00;1.60;;;27.00;99.90;;;;;;5083244;28;20052;-80
2023/09/06 10:52:20;;;;;;;2.45;2.10;;;27.20;99.90;;;;;;5082128;28;20055;-81
2023/09/06 10:54:47;;;;;;;2.80;2.13;;;27.30;99.90;;;;;;5063062;28;20040;-81
2023/09/06 10:57:14;;;;;;;1.50;1.40;;;27.30;99.90;;;;;;5065150;28;20368;-80
2023/09/06 10:59:50;;;;;;;2.45;1.70;;;27.40;99.90;;;;;;5071155;28;20316;-80
2023/09/06 11:02:27;;;;;;;1.23;1.13;;;27.60;99.90;;;;;;5081109;28;20087;-81
2023/09/06 11:05:15;;;;;;;2.03;1.65;;;27.80;99.90;;;;;;5058791;28;20048;-81
2023/09/06 11:07:44;;;;;;;2.15;1.95;;;27.90;99.90;;;;;;5076734;28;20480;-80
2023/09/06 11:10:13;;;;;;;2.10;1.83;;;27.90;99.90;;;;;;5059148;28;20159;-80
2023/09/06 11:12:41;;;;;;;2.63;1.85;;;28.00;99.90;;;;;;5071448;28;20850;-81
2023/09/06 11:15:09;;;;;;;1.95;1.75;;;28.20;99.90;;;;;;5063376;28;20055;-80
2023/09/06 11:17:36;;;;;;;2.72;2.10;;;28.30;99.90;;;;;;5064959;28;20119;-81
2023/09/06 11:20:12;;;;;;;1.98;1.75;;;28.30;99.90;;;;;;5048711;28;20046;-80
2023/09/06 11:22:53;;;;;;;2.25;2.05;;;28.50;99.90;;;;;;5063859;28;20070;-81
2023/09/06 11:25:21;;;;;;;2.10;1.88;;;28.70;99.90;;;;;;5053839;28;20055;-81
2023/09/06 11:27:49;;;;;;;1.95;1.38;;;28.80;99.90;;;;;;5083458;28;20048;-81
2023/09/06 11:30:21;;;;;;;1.77;1.67;;;29.10;99.90;;;;;;5086835;28;20104;-81
2023/09/06 11:32:49;;;;;;;1.60;1.30;;;29.30;99.90;;;;;;5085335;28;20116;-80
2023/09/06 11:35:16;;;;;;;1.40;1.30;;;29.40;99.90;;;;;;5089065;28;20517;-81
2023/09/06 11:37:46;;;;;;;1.42;1.20;;;29.70;99.90;;;;;;5069151;28;20125;-82
2023/09/06 11:40:15;;;;;;;1.17;1.08;;;30.00;99.90;;;;;;5089269;28;20057;-81
2023/09/06 11:42:42;;;;;;;1.33;1.20;;;30.30;99.90;;;;;;5090794;28;20544;-82
2023/09/06 11:45:12;;;;;;;1.83;1.08;;;30.40;99.90;;;;;;5069463;28;20076;-81
2023/09/06 11:47:39;;;;;;;1.20;1.10;;;30.70;99.90;;;;;;5087368;28;20787;-81
2023/09/06 11:50:08;;;;;;;1.35;1.00;;;30.80;99.90;;;;;;5086779;28;20431;-81
2023/09/06 11:52:35;;;;;;;1.23;0.93;;;31.00;99.90;;;;;;5071268;28;20052;-82
2023/09/06 11:55:22;;;;;;;1.60;1.30;;;31.10;99.90;;;;;;5087522;28;20050;-81
2023/09/06 11:57:52;;;;;;;1.50;1.40;;;31.20;99.90;;;;;;5053668;28;20059;-81
2023/09/06 12:00:28;;;;;;;1.70;1.33;;;31.40;99.90;;;;;;5071986;28;20463;-81
2023/09/06 12:03:11;;;;;;;1.58;1.42;;;31.50;99.90;;;;;;5080329;28;20079;-80
2023/09/06 12:05:49;;;;;;;1.70;1.48;;;31.70;99.90;;;;;;5082471;28;20543;-81
2023/09/06 12:08:19;;;;;;;1.77;1.60;;;31.90;99.90;;;;;;5057726;28;20047;-82
2023/09/06 12:10:50;;;;;;;2.20;1.58;;;32.10;99.90;;;;;;5070043;28;20047;-79
2023/09/06 12:13:17;;;;;;;1.57;1.37;;;32.20;99.90;;;;;;5058364;28;20056;-79
2023/09/06 12:15:44;;;;;;;1.75;1.60;;;32.20;99.90;;;;;;5067757;28;20056;-81
2023/09/06 12:18:12;;;;;;;2.33;2.00;;;32.30;99.90;;;;;;5086170;28;20200;-80
2023/09/06 12:20:39;;;;;;;2.30;1.95;;;32.30;99.90;;;;;;5067972;28;20052;-80
2023/09/06 12:23:06;;;;;;;1.80;1.55;;;32.30;99.90;;;;;;5061382;28;20048;-79
2023/09/06 12:25:34;;;;;;;1.48;1.38;;;32.60;99.90;;;;;;5067204;28;20121;-79
2023/09/06 12:28:03;;;;;;;2.40;1.70;;;33.10;99.90;;;;;;5064161;28;20054;-81
2023/09/06 12:30:30;;;;;;;1.55;1.27;;;33.10;99.90;;;;;;5086915;28;20055;-81
2023/09/06 12:32:57;;;;;;;2.20;1.70;;;33.40;99.90;;;;;;5084351;28;20055;-80
2023/09/06 12:35:24;;;;;;;3.08;1.77;;;33.30;99.90;;;;;;5084325;28;20044;-81
2023/09/06 12:37:52;;;;;;;1.55;1.25;;;33.40;99.90;;;;;;5052584;28;20167;-81
2023/09/06 12:40:25;;;;;;;2.05;1.77;;;33.40;99.90;;;;;;5067887;28;20048;-81
2023/09/06 12:42:52;;;;;;;1.80;1.17;;;33.40;99.90;;;;;;5080517;28;20051;-80
2023/09/06 12:45:27;;;;;;;2.00;1.48;;;33.90;99.90;;;;;;5082751;28;20698;-81
2023/09/06 12:47:55;;;;;;;1.67;1.35;;;34.30;99.90;;;;;;5084697;28;20051;-80
2023/09/06 12:50:22;;;;;;;1.83;1.33;;;34.50;99.90;;;;;;5085946;28;20535;-81
2023/09/06 12:52:49;;;;;;;2.63;1.50;;;34.60;99.90;;;;;;5068993;28;20048;-80
2023/09/06 12:55:16;;;;;;;2.08;1.73;;;34.40;99.90;;;;;;5085993;28;20116;-82
2023/09/06 12:57:43;;;;;;;2.22;1.40;;;34.50;99.90;;;;;;5066181;28;20124;-81